DAL07D RJTT-KATL
Flight info
| Callsign | DAL07D |
|---|---|
| Flight time | N/A |
| Altitude | 35000 |
| Route | INUBO Y808 NOLAX Y812 ADNAP R591 ADGOR AGEDI AKISU/N0490F370 DCT ASPIN DCT AAMYY DCT 54N180W 54N170W 54N160W/N0484F390 54N150W 53N140W 52N130W DCT POWOL DCT YVR DCT HUH DCT TWISP J52 GEG DCT BGMAN/N0481F410 DCT KU84S DCT KD75W DCT KP63C DCT MCI DCT FAM DCT HITMN DCT NEWBB DCT IHAVE DCT MTHEW CHPPR1 |
| Aircraft | A359/H-SDE2E3GHIJ3J4J5LM1ORWXY/LB1D1 |
Departure
| Time | 2026-05-01 07:52 |
|---|---|
| Airport | Tokyo Haneda International Airport (RJTT) |
Arrival
| Time | N/A |
|---|---|
| Airport | Hartsfield Jackson Atlanta International Airport (KATL) |
| Time | Latitude | Longitude | Altitude | Speed | Heading |
|---|---|---|---|---|---|
| 2026-05-01 07:35 | 35.55330 | 139.78853 | 30 ft | 0 kts | 240° |
| 2026-05-01 07:42 | 35.55325 | 139.78841 | 30 ft | 0 kts | 240° |
| 2026-05-01 07:42 | 35.55335 | 139.78865 | 30 ft | 4 kts | 248° |
| 2026-05-01 07:42 | 35.55343 | 139.78896 | 28 ft | 4 kts | 262° |
| 2026-05-01 07:42 | 35.55343 | 139.78929 | 26 ft | 4 kts | 284° |
| 2026-05-01 07:43 | 35.55333 | 139.78955 | 28 ft | 1 kts | 312° |
| 2026-05-01 07:43 | 35.55348 | 139.78935 | 27 ft | 5 kts | 312° |
| 2026-05-01 07:43 | 35.55353 | 139.78927 | 29 ft | 0 kts | 312° |
| 2026-05-01 07:46 | 35.55399 | 139.78947 | 30 ft | 11 kts | 37° |
| 2026-05-01 07:47 | 35.55464 | 139.79031 | 30 ft | 10 kts | 50° |
| 2026-05-01 07:47 | 35.55495 | 139.79104 | 30 ft | 11 kts | 64° |
| 2026-05-01 07:47 | 35.55547 | 139.79131 | 29 ft | 8 kts | 349° |
| 2026-05-01 07:47 | 35.55618 | 139.79089 | 29 ft | 16 kts | 330° |
| 2026-05-01 07:48 | 35.55830 | 139.78943 | 29 ft | 19 kts | 329° |
| 2026-05-01 07:48 | 35.55944 | 139.78856 | 29 ft | 20 kts | 329° |
| 2026-05-01 07:48 | 35.56066 | 139.78773 | 29 ft | 21 kts | 331° |
| 2026-05-01 07:49 | 35.56194 | 139.78684 | 29 ft | 21 kts | 328° |
| 2026-05-01 07:49 | 35.56426 | 139.78516 | 29 ft | 8 kts | 331° |
| 2026-05-01 07:49 | 35.56481 | 139.78505 | 29 ft | 7 kts | 11° |
| 2026-05-01 07:50 | 35.56519 | 139.78543 | 29 ft | 8 kts | 57° |
| 2026-05-01 07:50 | 35.56552 | 139.78684 | 30 ft | 9 kts | 116° |
| 2026-05-01 07:50 | 35.56505 | 139.78721 | 30 ft | 8 kts | 154° |
| 2026-05-01 07:51 | 35.56428 | 139.78773 | 30 ft | 32 kts | 151° |
| 2026-05-01 07:51 | 35.56026 | 139.79058 | 30 ft | 99 kts | 150° |
| 2026-05-01 07:51 | 35.55254 | 139.79604 | 32 ft | 155 kts | 147° |
| 2026-05-01 07:52 | 35.53577 | 139.81151 | 1455 ft | 155 kts | 140° |
| 2026-05-01 07:52 | 35.52812 | 139.82164 | 1727 ft | 173 kts | 145° |
| 2026-05-01 07:52 | 35.51905 | 139.83263 | 2014 ft | 194 kts | 146° |
| 2026-05-01 07:53 | 35.49775 | 139.85826 | 2669 ft | 235 kts | 144° |
| 2026-05-01 07:53 | 35.48569 | 139.87291 | 3054 ft | 250 kts | 144° |
| 2026-05-01 07:53 | 35.47321 | 139.88813 | 3675 ft | 256 kts | 143° |
| 2026-05-01 07:53 | 35.46188 | 139.90542 | 4404 ft | 267 kts | 128° |
| 2026-05-01 07:54 | 35.46070 | 139.95269 | 5569 ft | 310 kts | 65° |
| 2026-05-01 07:55 | 35.51373 | 139.99260 | 7442 ft | 309 kts | 346° |
| 2026-05-01 07:55 | 35.55504 | 139.97940 | 8926 ft | 309 kts | 336° |
| 2026-05-01 07:56 | 35.61952 | 139.96053 | 10563 ft | 348 kts | 354° |
| 2026-05-01 07:56 | 35.67063 | 139.96352 | 11170 ft | 384 kts | 359° |
| 2026-05-01 07:57 | 35.69795 | 139.96553 | 11473 ft | 400 kts | 358° |
| 2026-05-01 07:57 | 35.75401 | 139.96029 | 12198 ft | 406 kts | 334° |
| 2026-05-01 07:58 | 35.80726 | 139.93548 | 13314 ft | 413 kts | 330° |
| 2026-05-01 07:58 | 35.86162 | 139.90962 | 14239 ft | 425 kts | 331° |
| 2026-05-01 07:59 | 35.91709 | 139.88343 | 14962 ft | 433 kts | 331° |
| 2026-05-01 07:59 | 35.97510 | 139.85904 | 15826 ft | 454 kts | 344° |
| 2026-05-01 08:00 | 36.10157 | 139.90064 | 16825 ft | 486 kts | 21° |
| 2026-05-01 08:01 | 36.18239 | 139.94760 | 16473 ft | 481 kts | 41° |
| 2026-05-01 08:01 | 36.20502 | 139.97764 | 16445 ft | 472 kts | 60° |
| 2026-05-01 08:01 | 36.22137 | 140.02394 | 16467 ft | 452 kts | 87° |
| 2026-05-01 08:02 | 36.22702 | 140.08754 | 16454 ft | 447 kts | 93° |
| 2026-05-01 08:02 | 36.23079 | 140.12598 | 16453 ft | 450 kts | 91° |
| 2026-05-01 08:03 | 36.24100 | 140.20338 | 17282 ft | 457 kts | 90° |
| 2026-05-01 08:03 | 36.24327 | 140.24208 | 17795 ft | 445 kts | 104° |
| 2026-05-01 08:03 | 36.22483 | 140.31086 | 18619 ft | 407 kts | 137° |
| 2026-05-01 08:04 | 36.18585 | 140.35716 | 19567 ft | 387 kts | 154° |
| 2026-05-01 08:04 | 36.14295 | 140.39803 | 20582 ft | 390 kts | 154° |
| 2026-05-01 08:05 | 36.09972 | 140.43951 | 21553 ft | 396 kts | 154° |
| 2026-05-01 08:05 | 36.07792 | 140.46048 | 22053 ft | 399 kts | 154° |
| 2026-05-01 08:05 | 36.05599 | 140.48162 | 22593 ft | 401 kts | 154° |
| 2026-05-01 08:06 | 36.01179 | 140.52420 | 23535 ft | 404 kts | 154° |
| 2026-05-01 08:06 | 35.96760 | 140.56676 | 24493 ft | 406 kts | 154° |
| 2026-05-01 08:07 | 35.92285 | 140.60978 | 25447 ft | 408 kts | 154° |
| 2026-05-01 08:07 | 35.87786 | 140.65294 | 26283 ft | 411 kts | 154° |
| 2026-05-01 08:08 | 35.85517 | 140.67466 | 26606 ft | 415 kts | 154° |
| 2026-05-01 08:08 | 35.80945 | 140.71843 | 27387 ft | 418 kts | 154° |
| 2026-05-01 08:09 | 35.76337 | 140.76292 | 28190 ft | 425 kts | 152° |
| 2026-05-01 08:09 | 35.74176 | 140.78855 | 28550 ft | 440 kts | 144° |
| 2026-05-01 08:09 | 35.72307 | 140.81947 | 28909 ft | 459 kts | 135° |
| 2026-05-01 08:10 | 35.69605 | 140.89293 | 29471 ft | 484 kts | 125° |
| 2026-05-01 08:10 | 35.67274 | 140.97173 | 29883 ft | 494 kts | 123° |
| 2026-05-01 08:11 | 35.64987 | 141.05180 | 30402 ft | 497 kts | 123° |
| 2026-05-01 08:11 | 35.62659 | 141.13184 | 31011 ft | 496 kts | 123° |
| 2026-05-01 08:12 | 35.60296 | 141.21154 | 31480 ft | 498 kts | 124° |
| 2026-05-01 08:12 | 35.59114 | 141.25122 | 31835 ft | 497 kts | 124° |
| 2026-05-01 08:12 | 35.56789 | 141.32923 | 32551 ft | 493 kts | 124° |
| 2026-05-01 08:13 | 35.55604 | 141.36881 | 32786 ft | 494 kts | 124° |
| 2026-05-01 08:13 | 35.54411 | 141.40849 | 33022 ft | 495 kts | 124° |
| 2026-05-01 08:13 | 35.52047 | 141.48715 | 33489 ft | 495 kts | 124° |
| 2026-05-01 08:14 | 35.50854 | 141.52675 | 33710 ft | 495 kts | 124° |
| 2026-05-01 08:14 | 35.49661 | 141.56643 | 33973 ft | 494 kts | 124° |
| 2026-05-01 08:14 | 35.48472 | 141.60595 | 34222 ft | 493 kts | 124° |
| 2026-05-01 08:14 | 35.47281 | 141.64546 | 34439 ft | 493 kts | 124° |
| 2026-05-01 08:15 | 35.44237 | 141.76801 | 34539 ft | 523 kts | 110° |
| 2026-05-01 08:16 | 35.43878 | 141.85856 | 34544 ft | 535 kts | 103° |
| 2026-05-01 08:16 | 35.43846 | 141.94940 | 34557 ft | 536 kts | 102° |
| 2026-05-01 08:17 | 35.43831 | 142.04089 | 34561 ft | 535 kts | 102° |
| 2026-05-01 08:17 | 35.43772 | 142.13222 | 34561 ft | 535 kts | 102° |
| 2026-05-01 08:18 | 35.43687 | 142.22304 | 34561 ft | 535 kts | 102° |
| 2026-05-01 08:19 | 35.43490 | 142.40561 | 34570 ft | 535 kts | 102° |
| 2026-05-01 08:19 | 35.43384 | 142.49699 | 34575 ft | 535 kts | 102° |
| 2026-05-01 08:20 | 35.43272 | 142.58817 | 34580 ft | 534 kts | 101° |
| 2026-05-01 08:20 | 35.43154 | 142.67862 | 34581 ft | 532 kts | 101° |
| 2026-05-01 08:21 | 35.43025 | 142.76951 | 34567 ft | 532 kts | 101° |
| 2026-05-01 08:21 | 35.42892 | 142.86006 | 34595 ft | 530 kts | 101° |
| 2026-05-01 08:22 | 35.42754 | 142.94983 | 34598 ft | 529 kts | 101° |
| 2026-05-01 08:22 | 35.42607 | 143.04005 | 34593 ft | 529 kts | 100° |
| 2026-05-01 08:23 | 35.42455 | 143.13003 | 34608 ft | 527 kts | 100° |
| 2026-05-01 08:23 | 35.42301 | 143.21945 | 34617 ft | 528 kts | 99° |
| 2026-05-01 08:23 | 35.42513 | 143.26491 | 34605 ft | 539 kts | 90° |
| 2026-05-01 08:24 | 35.43313 | 143.31017 | 34627 ft | 550 kts | 79° |
| 2026-05-01 08:24 | 35.44785 | 143.35379 | 34631 ft | 559 kts | 67° |
| 2026-05-01 08:24 | 35.46912 | 143.39343 | 34631 ft | 566 kts | 54° |
| 2026-05-01 08:25 | 35.52226 | 143.46481 | 34631 ft | 566 kts | 49° |
| 2026-05-01 08:25 | 35.57716 | 143.53367 | 34629 ft | 564 kts | 48° |
| 2026-05-01 08:26 | 35.63120 | 143.60158 | 34638 ft | 561 kts | 49° |
| 2026-05-01 08:26 | 35.68536 | 143.67058 | 34642 ft | 561 kts | 49° |
| 2026-05-01 08:27 | 35.73923 | 143.73969 | 34641 ft | 561 kts | 49° |
| 2026-05-01 08:27 | 35.79316 | 143.80905 | 34661 ft | 559 kts | 49° |
| 2026-05-01 08:28 | 35.84620 | 143.87732 | 34644 ft | 559 kts | 49° |
| 2026-05-01 08:28 | 35.89971 | 143.94640 | 34649 ft | 559 kts | 49° |
| 2026-05-01 08:29 | 35.95332 | 144.01575 | 34649 ft | 559 kts | 49° |
| 2026-05-01 08:29 | 36.00696 | 144.08526 | 34654 ft | 559 kts | 49° |
| 2026-05-01 08:30 | 36.06013 | 144.15437 | 34660 ft | 559 kts | 49° |
| 2026-05-01 08:30 | 36.11377 | 144.22429 | 34657 ft | 560 kts | 49° |
| 2026-05-01 08:31 | 36.16725 | 144.29415 | 34678 ft | 559 kts | 49° |
| 2026-05-01 08:31 | 36.22055 | 144.36389 | 34673 ft | 558 kts | 49° |
| 2026-05-01 08:32 | 36.27351 | 144.43338 | 34671 ft | 558 kts | 49° |
| 2026-05-01 08:32 | 36.32665 | 144.50324 | 34670 ft | 558 kts | 49° |
| 2026-05-01 08:33 | 36.37991 | 144.57337 | 34683 ft | 558 kts | 49° |
| 2026-05-01 08:33 | 36.43269 | 144.64306 | 34683 ft | 557 kts | 49° |
| 2026-05-01 08:34 | 36.48563 | 144.71312 | 34691 ft | 557 kts | 49° |
| 2026-05-01 08:34 | 36.53837 | 144.78303 | 34697 ft | 558 kts | 49° |
| 2026-05-01 08:35 | 36.59128 | 144.85332 | 34698 ft | 560 kts | 49° |
| 2026-05-01 08:35 | 36.64425 | 144.92387 | 34707 ft | 560 kts | 49° |
| 2026-05-01 08:36 | 36.69726 | 144.99460 | 34712 ft | 560 kts | 49° |
| 2026-05-01 08:36 | 36.75030 | 145.06550 | 34722 ft | 562 kts | 49° |
| 2026-05-01 08:37 | 36.80336 | 145.13663 | 34709 ft | 562 kts | 49° |
| 2026-05-01 08:37 | 36.85614 | 145.20752 | 34715 ft | 563 kts | 49° |
| 2026-05-01 08:38 | 36.90921 | 145.27892 | 34732 ft | 563 kts | 49° |
| 2026-05-01 08:38 | 36.96219 | 145.35038 | 34731 ft | 563 kts | 49° |
| 2026-05-01 08:39 | 37.01468 | 145.42137 | 34740 ft | 563 kts | 49° |
| 2026-05-01 08:39 | 37.06763 | 145.49313 | 34744 ft | 563 kts | 49° |
| 2026-05-01 08:40 | 37.14699 | 145.60097 | 34758 ft | 565 kts | 49° |
| 2026-05-01 08:40 | 37.19984 | 145.67297 | 34758 ft | 565 kts | 49° |
| 2026-05-01 08:41 | 37.25574 | 145.74160 | 34784 ft | 566 kts | 43° |
| 2026-05-01 08:41 | 37.31405 | 145.80672 | 34768 ft | 565 kts | 42° |
| 2026-05-01 08:42 | 37.37240 | 145.87268 | 34773 ft | 566 kts | 43° |
| 2026-05-01 08:42 | 37.43010 | 145.93949 | 34783 ft | 566 kts | 43° |
| 2026-05-01 08:43 | 37.48747 | 146.00662 | 34792 ft | 566 kts | 44° |
| 2026-05-01 08:43 | 37.54482 | 146.07391 | 34792 ft | 566 kts | 43° |
| 2026-05-01 08:44 | 37.60203 | 146.14102 | 34800 ft | 567 kts | 44° |
| 2026-05-01 08:44 | 37.65969 | 146.20885 | 34809 ft | 568 kts | 44° |
| 2026-05-01 08:45 | 37.71725 | 146.27673 | 34811 ft | 568 kts | 44° |
| 2026-05-01 08:45 | 37.77462 | 146.34452 | 34816 ft | 568 kts | 44° |
| 2026-05-01 08:46 | 37.83234 | 146.41287 | 34819 ft | 568 kts | 44° |
| 2026-05-01 08:46 | 37.88999 | 146.48127 | 34827 ft | 568 kts | 44° |
| 2026-05-01 08:47 | 37.94782 | 146.55005 | 34829 ft | 568 kts | 44° |
| 2026-05-01 08:47 | 38.00516 | 146.61839 | 34829 ft | 568 kts | 44° |
| 2026-05-01 08:48 | 38.06275 | 146.68720 | 34837 ft | 568 kts | 44° |
| 2026-05-01 08:48 | 38.12015 | 146.75592 | 34851 ft | 568 kts | 44° |
| 2026-05-01 08:49 | 38.17774 | 146.82505 | 34851 ft | 568 kts | 44° |
| 2026-05-01 08:49 | 38.23520 | 146.89415 | 34864 ft | 568 kts | 44° |
| 2026-05-01 08:50 | 38.29252 | 146.96326 | 34875 ft | 567 kts | 44° |
| 2026-05-01 08:50 | 38.34977 | 147.03245 | 34876 ft | 567 kts | 44° |
| 2026-05-01 08:51 | 38.40668 | 147.10138 | 34881 ft | 567 kts | 44° |
| 2026-05-01 08:51 | 38.46393 | 147.17088 | 34895 ft | 568 kts | 44° |
| 2026-05-01 08:52 | 38.52120 | 147.24057 | 34892 ft | 568 kts | 44° |
| 2026-05-01 08:52 | 38.56885 | 147.29869 | 34902 ft | 569 kts | 44° |
| 2026-05-01 08:53 | 38.63539 | 147.38001 | 34900 ft | 569 kts | 44° |
| 2026-05-01 08:53 | 38.68325 | 147.43860 | 34912 ft | 568 kts | 43° |
| 2026-05-01 08:54 | 38.74035 | 147.50871 | 34920 ft | 568 kts | 44° |
| 2026-05-01 08:54 | 38.79735 | 147.57887 | 34920 ft | 568 kts | 44° |
| 2026-05-01 08:55 | 38.85443 | 147.64929 | 34948 ft | 568 kts | 43° |
| 2026-05-01 08:55 | 38.91104 | 147.71924 | 34937 ft | 569 kts | 43° |
| 2026-05-01 08:56 | 38.96804 | 147.78988 | 34936 ft | 569 kts | 43° |
| 2026-05-01 08:56 | 39.02507 | 147.86074 | 34942 ft | 569 kts | 43° |
| 2026-05-01 08:57 | 39.08196 | 147.93158 | 34962 ft | 569 kts | 42° |
| 2026-05-01 08:57 | 39.13878 | 148.00249 | 34953 ft | 569 kts | 43° |
| 2026-05-01 08:58 | 39.19567 | 148.07365 | 34959 ft | 569 kts | 43° |
| 2026-05-01 08:58 | 39.25243 | 148.14482 | 34960 ft | 570 kts | 43° |
| 2026-05-01 08:59 | 39.30927 | 148.21628 | 34967 ft | 570 kts | 43° |
| 2026-05-01 08:59 | 39.36583 | 148.28754 | 34981 ft | 570 kts | 43° |
| 2026-05-01 09:00 | 39.42256 | 148.35920 | 34985 ft | 570 kts | 43° |
| 2026-05-01 09:00 | 39.47935 | 148.43110 | 35021 ft | 570 kts | 43° |
| 2026-05-01 09:01 | 39.53615 | 148.50316 | 34997 ft | 572 kts | 43° |
| 2026-05-01 09:01 | 39.59261 | 148.57494 | 34998 ft | 572 kts | 43° |
| 2026-05-01 09:02 | 39.64940 | 148.64738 | 35007 ft | 572 kts | 43° |
| 2026-05-01 09:02 | 39.70612 | 148.71991 | 35014 ft | 572 kts | 43° |
| 2026-05-01 09:03 | 39.76279 | 148.79251 | 35016 ft | 572 kts | 42° |
| 2026-05-01 09:03 | 39.81940 | 148.86524 | 35026 ft | 572 kts | 42° |
| 2026-05-01 09:04 | 39.87567 | 148.93772 | 35022 ft | 572 kts | 42° |
| 2026-05-01 09:04 | 39.93231 | 149.01084 | 35026 ft | 572 kts | 43° |
| 2026-05-01 09:05 | 39.98883 | 149.08399 | 35028 ft | 572 kts | 42° |
| 2026-05-01 09:05 | 40.04500 | 149.15685 | 35030 ft | 571 kts | 42° |
| 2026-05-01 09:06 | 40.10140 | 149.23019 | 35045 ft | 571 kts | 42° |
| 2026-05-01 09:06 | 40.15734 | 149.30313 | 35043 ft | 571 kts | 42° |
| 2026-05-01 09:07 | 40.21367 | 149.37674 | 35051 ft | 571 kts | 42° |
| 2026-05-01 09:07 | 40.26989 | 149.45040 | 35057 ft | 571 kts | 42° |
| 2026-05-01 09:08 | 40.32606 | 149.52417 | 35062 ft | 571 kts | 42° |
| 2026-05-01 09:08 | 40.38176 | 149.59751 | 35062 ft | 571 kts | 42° |
| 2026-05-01 09:09 | 40.43774 | 149.67143 | 35066 ft | 571 kts | 42° |
| 2026-05-01 09:09 | 40.49376 | 149.74587 | 35073 ft | 572 kts | 42° |
| 2026-05-01 09:10 | 40.54958 | 149.82039 | 35072 ft | 572 kts | 42° |
| 2026-05-01 09:10 | 40.60543 | 149.89510 | 35091 ft | 572 kts | 42° |
| 2026-05-01 09:11 | 40.66091 | 149.96949 | 35080 ft | 572 kts | 42° |
| 2026-05-01 09:11 | 40.71659 | 150.04429 | 35108 ft | 572 kts | 42° |
| 2026-05-01 09:12 | 40.77238 | 150.11944 | 35091 ft | 573 kts | 42° |
| 2026-05-01 09:12 | 40.82812 | 150.19472 | 35097 ft | 573 kts | 41° |
| 2026-05-01 09:13 | 40.88374 | 150.27003 | 35094 ft | 572 kts | 42° |
| 2026-05-01 09:13 | 40.93936 | 150.34553 | 35099 ft | 572 kts | 42° |
| 2026-05-01 09:14 | 40.99489 | 150.42110 | 35108 ft | 572 kts | 42° |
| 2026-05-01 09:14 | 41.04996 | 150.49626 | 35109 ft | 572 kts | 41° |
| 2026-05-01 09:15 | 41.10532 | 150.57199 | 35110 ft | 572 kts | 41° |
| 2026-05-01 09:15 | 41.16069 | 150.64790 | 35113 ft | 572 kts | 41° |
| 2026-05-01 09:16 | 41.21593 | 150.72388 | 35121 ft | 571 kts | 41° |
| 2026-05-01 09:17 | 41.29871 | 150.83806 | 35121 ft | 571 kts | 41° |
| 2026-05-01 09:17 | 41.38107 | 150.95212 | 35135 ft | 570 kts | 41° |
| 2026-05-01 09:18 | 41.46349 | 151.06670 | 35138 ft | 570 kts | 41° |
| 2026-05-01 09:19 | 41.54534 | 151.18097 | 35145 ft | 569 kts | 41° |
| 2026-05-01 09:20 | 41.62736 | 151.29586 | 35154 ft | 569 kts | 41° |
| 2026-05-01 09:21 | 41.73636 | 151.44932 | 35153 ft | 569 kts | 41° |
| 2026-05-01 09:21 | 41.81802 | 151.56479 | 35160 ft | 569 kts | 41° |
| 2026-05-01 09:22 | 41.92630 | 151.71862 | 35156 ft | 568 kts | 41° |
| 2026-05-01 09:23 | 42.00765 | 151.83475 | 35155 ft | 570 kts | 41° |
| 2026-05-01 09:24 | 42.08917 | 151.95155 | 35154 ft | 570 kts | 41° |
| 2026-05-01 09:25 | 42.19750 | 152.10756 | 35169 ft | 569 kts | 41° |
| 2026-05-01 09:26 | 42.27826 | 152.22438 | 35188 ft | 569 kts | 41° |
| 2026-05-01 09:26 | 42.35915 | 152.34188 | 35174 ft | 569 kts | 41° |
| 2026-05-01 09:27 | 42.43960 | 152.45919 | 35179 ft | 568 kts | 41° |
| 2026-05-01 09:28 | 42.49318 | 152.53763 | 35179 ft | 567 kts | 41° |
| 2026-05-01 09:28 | 42.54677 | 152.61624 | 35180 ft | 567 kts | 41° |
| 2026-05-01 09:29 | 42.62700 | 152.73438 | 35188 ft | 566 kts | 41° |
| 2026-05-01 09:30 | 42.70674 | 152.85223 | 35185 ft | 566 kts | 41° |
| 2026-05-01 09:30 | 42.78649 | 152.97063 | 35197 ft | 565 kts | 41° |
| 2026-05-01 09:31 | 42.83953 | 153.04963 | 35187 ft | 565 kts | 41° |
| 2026-05-01 09:32 | 42.91864 | 153.16787 | 35194 ft | 564 kts | 40° |
| 2026-05-01 09:32 | 42.99779 | 153.28667 | 35191 ft | 563 kts | 40° |
| 2026-05-01 09:33 | 43.05024 | 153.36563 | 35215 ft | 563 kts | 40° |
| 2026-05-01 09:34 | 43.12913 | 153.48486 | 35199 ft | 562 kts | 40° |
| 2026-05-01 09:34 | 43.20777 | 153.60416 | 35222 ft | 563 kts | 40° |
| 2026-05-01 09:35 | 43.28617 | 153.72360 | 35197 ft | 564 kts | 40° |
| 2026-05-01 09:36 | 43.33864 | 153.80381 | 35197 ft | 564 kts | 40° |
| 2026-05-01 09:36 | 43.39102 | 153.88415 | 35206 ft | 563 kts | 40° |
| 2026-05-01 09:37 | 43.44328 | 153.96454 | 35196 ft | 562 kts | 40° |
| 2026-05-01 09:37 | 43.52134 | 154.08497 | 35203 ft | 562 kts | 40° |
| 2026-05-01 09:38 | 43.59899 | 154.20529 | 35199 ft | 562 kts | 40° |
| 2026-05-01 09:39 | 43.67695 | 154.32658 | 35200 ft | 562 kts | 40° |
| 2026-05-01 09:39 | 43.72881 | 154.40760 | 35208 ft | 562 kts | 39° |
| 2026-05-01 09:40 | 43.80606 | 154.52864 | 35204 ft | 561 kts | 40° |
| 2026-05-01 09:41 | 43.85769 | 154.60982 | 35223 ft | 561 kts | 39° |
| 2026-05-01 09:41 | 43.93494 | 154.73179 | 35207 ft | 560 kts | 39° |
| 2026-05-01 09:42 | 43.98634 | 154.81315 | 35207 ft | 560 kts | 39° |
| 2026-05-01 09:43 | 44.08010 | 154.96228 | 35208 ft | 558 kts | 39° |
| 2026-05-01 09:43 | 44.13942 | 155.05701 | 35208 ft | 558 kts | 39° |
| 2026-05-01 09:44 | 44.20723 | 155.16674 | 35224 ft | 559 kts | 39° |
| 2026-05-01 09:45 | 44.25679 | 155.24952 | 35205 ft | 558 kts | 40° |
| 2026-05-01 09:45 | 44.33132 | 155.37432 | 35232 ft | 558 kts | 39° |
| 2026-05-01 09:46 | 44.38098 | 155.45745 | 35212 ft | 554 kts | 39° |
| 2026-05-01 09:46 | 44.43006 | 155.53975 | 35220 ft | 553 kts | 39° |
| 2026-05-01 09:47 | 44.47932 | 155.62254 | 35216 ft | 553 kts | 39° |
| 2026-05-01 09:47 | 44.52857 | 155.70564 | 35220 ft | 552 kts | 39° |
| 2026-05-01 09:48 | 44.57764 | 155.78863 | 35221 ft | 552 kts | 39° |
| 2026-05-01 09:48 | 44.62658 | 155.87163 | 35224 ft | 552 kts | 39° |
| 2026-05-01 09:49 | 44.67551 | 155.95491 | 35222 ft | 551 kts | 39° |
| 2026-05-01 09:49 | 44.72421 | 156.03805 | 35216 ft | 550 kts | 39° |
| 2026-05-01 09:50 | 44.77247 | 156.12061 | 35216 ft | 551 kts | 39° |
| 2026-05-01 09:50 | 44.82110 | 156.20409 | 35232 ft | 550 kts | 38° |
| 2026-05-01 09:51 | 44.86928 | 156.28715 | 35231 ft | 545 kts | 38° |
| 2026-05-01 09:51 | 44.91725 | 156.36996 | 35222 ft | 545 kts | 38° |
| 2026-05-01 09:52 | 44.96523 | 156.45295 | 35222 ft | 545 kts | 38° |
| 2026-05-01 09:52 | 45.01279 | 156.53558 | 35221 ft | 543 kts | 38° |
| 2026-05-01 09:53 | 45.06048 | 156.61867 | 35222 ft | 543 kts | 38° |
| 2026-05-01 09:53 | 45.10804 | 156.70171 | 35225 ft | 543 kts | 38° |
| 2026-05-01 09:54 | 45.15559 | 156.78500 | 35222 ft | 543 kts | 38° |
| 2026-05-01 09:54 | 45.20278 | 156.86792 | 35229 ft | 544 kts | 38° |
| 2026-05-01 09:55 | 45.25025 | 156.95157 | 35227 ft | 544 kts | 38° |
| 2026-05-01 09:55 | 45.29707 | 157.03434 | 35250 ft | 545 kts | 37° |
| 2026-05-01 09:56 | 45.34421 | 157.11804 | 35223 ft | 540 kts | 37° |
| 2026-05-01 09:56 | 45.39084 | 157.20094 | 35229 ft | 540 kts | 37° |
| 2026-05-01 09:57 | 45.43774 | 157.28449 | 35236 ft | 540 kts | 37° |
| 2026-05-01 09:57 | 45.48444 | 157.36807 | 35236 ft | 536 kts | 37° |
| 2026-05-01 09:58 | 45.53076 | 157.45124 | 35242 ft | 534 kts | 37° |
| 2026-05-01 09:58 | 45.57693 | 157.53420 | 35237 ft | 535 kts | 37° |
| 2026-05-01 09:59 | 45.62323 | 157.61765 | 35254 ft | 535 kts | 38° |
| 2026-05-01 09:59 | 45.66924 | 157.70099 | 35236 ft | 532 kts | 38° |
| 2026-05-01 10:00 | 45.71479 | 157.78369 | 35241 ft | 532 kts | 38° |
| 2026-05-01 10:00 | 45.76062 | 157.86709 | 35247 ft | 533 kts | 38° |
| 2026-05-01 10:01 | 45.80636 | 157.95059 | 35243 ft | 531 kts | 39° |
| 2026-05-01 10:01 | 45.85192 | 158.03407 | 35244 ft | 531 kts | 39° |
| 2026-05-01 10:02 | 45.89742 | 158.11759 | 35249 ft | 531 kts | 40° |
| 2026-05-01 10:02 | 45.94258 | 158.20075 | 35261 ft | 531 kts | 41° |
| 2026-05-01 10:03 | 45.98788 | 158.28452 | 35244 ft | 529 kts | 41° |
| 2026-05-01 10:03 | 46.03300 | 158.36816 | 35252 ft | 529 kts | 41° |
| 2026-05-01 10:04 | 46.07815 | 158.45208 | 35253 ft | 529 kts | 41° |
| 2026-05-01 10:04 | 46.12315 | 158.53595 | 35253 ft | 528 kts | 42° |
| 2026-05-01 10:05 | 46.16761 | 158.61914 | 35252 ft | 527 kts | 42° |
| 2026-05-01 10:05 | 46.21242 | 158.70315 | 35261 ft | 527 kts | 43° |
| 2026-05-01 10:06 | 46.25710 | 158.78719 | 35291 ft | 527 kts | 43° |
| 2026-05-01 10:06 | 46.30156 | 158.87110 | 35265 ft | 524 kts | 43° |
| 2026-05-01 10:07 | 46.34586 | 158.95496 | 35257 ft | 524 kts | 44° |
| 2026-05-01 10:07 | 46.39015 | 159.03900 | 35251 ft | 524 kts | 44° |
| 2026-05-01 10:08 | 46.45609 | 159.16464 | 35262 ft | 523 kts | 44° |
| 2026-05-01 10:09 | 46.50004 | 159.24873 | 35260 ft | 522 kts | 45° |
| 2026-05-01 10:09 | 46.54394 | 159.33294 | 35270 ft | 523 kts | 45° |
| 2026-05-01 10:10 | 46.58751 | 159.41678 | 35271 ft | 522 kts | 45° |
| 2026-05-01 10:10 | 46.65284 | 159.54300 | 35266 ft | 519 kts | 45° |
| 2026-05-01 10:11 | 46.69629 | 159.62721 | 35260 ft | 520 kts | 45° |
| 2026-05-01 10:11 | 46.73943 | 159.71107 | 35259 ft | 520 kts | 45° |
| 2026-05-01 10:12 | 46.77573 | 159.78187 | 35259 ft | 520 kts | 45° |
| 2026-05-01 10:13 | 46.84771 | 159.92276 | 35259 ft | 520 kts | 45° |
| 2026-05-01 10:13 | 46.89086 | 160.00758 | 35263 ft | 520 kts | 46° |
| 2026-05-01 10:14 | 46.95502 | 160.13428 | 35257 ft | 516 kts | 45° |
| 2026-05-01 10:14 | 46.99775 | 160.21887 | 35263 ft | 516 kts | 45° |
| 2026-05-01 10:15 | 47.04012 | 160.30302 | 35250 ft | 516 kts | 46° |
| 2026-05-01 10:15 | 47.08264 | 160.38782 | 35252 ft | 514 kts | 45° |
| 2026-05-01 10:16 | 47.12486 | 160.47222 | 35247 ft | 512 kts | 45° |
| 2026-05-01 10:17 | 47.18799 | 160.59882 | 35254 ft | 512 kts | 45° |
| 2026-05-01 10:17 | 47.25094 | 160.72576 | 35252 ft | 509 kts | 45° |
| 2026-05-01 10:18 | 47.31322 | 160.85187 | 35251 ft | 509 kts | 45° |
| 2026-05-01 10:19 | 47.35482 | 160.93639 | 35242 ft | 509 kts | 45° |
| 2026-05-01 10:19 | 47.39628 | 161.02096 | 35247 ft | 508 kts | 45° |
| 2026-05-01 10:20 | 47.45794 | 161.14720 | 35239 ft | 506 kts | 45° |
| 2026-05-01 10:20 | 47.49915 | 161.23182 | 35238 ft | 506 kts | 45° |
| 2026-05-01 10:21 | 47.56069 | 161.35887 | 35736 ft | 504 kts | 45° |
| 2026-05-01 10:21 | 47.58081 | 161.40146 | 35939 ft | 506 kts | 46° |
| 2026-05-01 10:22 | 47.62076 | 161.48759 | 36306 ft | 508 kts | 46° |
| 2026-05-01 10:22 | 47.66046 | 161.57359 | 36685 ft | 509 kts | 46° |
| 2026-05-01 10:23 | 47.68049 | 161.61692 | 36861 ft | 509 kts | 46° |
| 2026-05-01 10:23 | 47.72064 | 161.70387 | 37228 ft | 509 kts | 46° |
| 2026-05-01 10:23 | 47.74061 | 161.74717 | 37227 ft | 509 kts | 46° |
| 2026-05-01 10:24 | 47.82060 | 161.92121 | 37224 ft | 509 kts | 46° |
| 2026-05-01 10:25 | 47.89992 | 162.09507 | 37221 ft | 506 kts | 47° |
| 2026-05-01 10:26 | 47.93942 | 162.18205 | 37219 ft | 506 kts | 47° |
| 2026-05-01 10:27 | 48.01829 | 162.35644 | 37229 ft | 506 kts | 47° |
| 2026-05-01 10:28 | 48.07703 | 162.48715 | 37208 ft | 505 kts | 47° |
| 2026-05-01 10:28 | 48.13570 | 162.61829 | 37203 ft | 505 kts | 47° |
| 2026-05-01 10:29 | 48.19394 | 162.74909 | 37202 ft | 505 kts | 48° |
| 2026-05-01 10:30 | 48.27183 | 162.92504 | 37201 ft | 506 kts | 48° |
| 2026-05-01 10:31 | 48.34918 | 163.10090 | 37185 ft | 506 kts | 48° |
| 2026-05-01 10:32 | 48.40729 | 163.23378 | 37184 ft | 506 kts | 49° |
| 2026-05-01 10:33 | 48.48428 | 163.41083 | 37186 ft | 506 kts | 49° |
| 2026-05-01 10:34 | 48.53539 | 163.52904 | 37173 ft | 505 kts | 49° |
| 2026-05-01 10:34 | 48.57368 | 163.61792 | 37192 ft | 505 kts | 49° |
| 2026-05-01 10:35 | 48.63083 | 163.75110 | 37209 ft | 505 kts | 50° |
| 2026-05-01 10:35 | 48.66888 | 163.84018 | 37165 ft | 504 kts | 50° |
| 2026-05-01 10:36 | 48.72584 | 163.97402 | 37161 ft | 504 kts | 50° |
| 2026-05-01 10:37 | 48.76371 | 164.06339 | 37158 ft | 504 kts | 50° |
| 2026-05-01 10:37 | 48.82016 | 164.19717 | 37152 ft | 503 kts | 50° |
| 2026-05-01 10:38 | 48.85775 | 164.28666 | 37150 ft | 503 kts | 50° |
| 2026-05-01 10:38 | 48.89531 | 164.37634 | 37149 ft | 503 kts | 50° |
| 2026-05-01 10:39 | 48.93281 | 164.46617 | 37142 ft | 503 kts | 50° |
| 2026-05-01 10:39 | 48.97018 | 164.55600 | 37135 ft | 502 kts | 51° |
| 2026-05-01 10:40 | 49.00748 | 164.64597 | 37135 ft | 502 kts | 51° |
| 2026-05-01 10:40 | 49.04443 | 164.73541 | 37130 ft | 502 kts | 51° |
| 2026-05-01 10:41 | 49.08162 | 164.82570 | 37132 ft | 502 kts | 51° |
| 2026-05-01 10:42 | 49.13724 | 164.96131 | 37126 ft | 502 kts | 51° |
| 2026-05-01 10:42 | 49.17396 | 165.05125 | 37122 ft | 502 kts | 51° |
| 2026-05-01 10:43 | 49.21086 | 165.14193 | 37116 ft | 502 kts | 51° |
| 2026-05-01 10:43 | 49.24774 | 165.23285 | 37153 ft | 502 kts | 52° |
| 2026-05-01 10:44 | 49.28431 | 165.32331 | 37107 ft | 502 kts | 52° |
| 2026-05-01 10:44 | 49.32094 | 165.41428 | 37108 ft | 502 kts | 52° |
| 2026-05-01 10:45 | 49.35754 | 165.50547 | 37104 ft | 502 kts | 52° |
| 2026-05-01 10:45 | 49.39354 | 165.59547 | 37143 ft | 502 kts | 52° |
| 2026-05-01 10:46 | 49.42962 | 165.68593 | 37097 ft | 501 kts | 52° |
| 2026-05-01 10:46 | 49.46598 | 165.77745 | 37094 ft | 502 kts | 53° |
| 2026-05-01 10:47 | 49.50228 | 165.86916 | 37092 ft | 502 kts | 53° |
| 2026-05-01 10:47 | 49.53830 | 165.96047 | 37088 ft | 502 kts | 53° |
| 2026-05-01 10:48 | 49.57447 | 166.05240 | 37089 ft | 501 kts | 53° |
| 2026-05-01 10:48 | 49.61057 | 166.14456 | 37085 ft | 502 kts | 53° |
| 2026-05-01 10:49 | 49.64662 | 166.23690 | 37077 ft | 502 kts | 53° |
| 2026-05-01 10:49 | 49.68176 | 166.32941 | 37070 ft | 503 kts | 55° |
| 2026-05-01 10:50 | 49.71574 | 166.42406 | 37071 ft | 503 kts | 56° |
| 2026-05-01 10:50 | 49.74959 | 166.51890 | 37069 ft | 503 kts | 56° |
| 2026-05-01 10:51 | 49.78344 | 166.61324 | 37068 ft | 503 kts | 56° |
| 2026-05-01 10:51 | 49.81747 | 166.70798 | 37064 ft | 503 kts | 56° |
| 2026-05-01 10:52 | 49.85146 | 166.80291 | 37061 ft | 503 kts | 56° |
| 2026-05-01 10:52 | 49.88535 | 166.89792 | 37059 ft | 503 kts | 56° |
| 2026-05-01 10:53 | 49.91914 | 166.99306 | 37064 ft | 503 kts | 56° |
| 2026-05-01 10:53 | 49.95267 | 167.08779 | 37050 ft | 503 kts | 56° |
| 2026-05-01 10:54 | 49.98624 | 167.18301 | 37062 ft | 503 kts | 57° |
| 2026-05-01 10:54 | 50.01978 | 167.27847 | 37045 ft | 503 kts | 57° |
| 2026-05-01 10:55 | 50.05321 | 167.37402 | 37034 ft | 503 kts | 57° |
| 2026-05-01 10:55 | 50.08645 | 167.46936 | 37034 ft | 503 kts | 57° |
| 2026-05-01 10:56 | 50.11975 | 167.56523 | 37054 ft | 503 kts | 57° |
| 2026-05-01 10:56 | 50.15304 | 167.66139 | 37017 ft | 503 kts | 57° |
| 2026-05-01 10:57 | 50.18601 | 167.75703 | 37020 ft | 503 kts | 57° |
| 2026-05-01 10:57 | 50.21908 | 167.85333 | 37017 ft | 503 kts | 57° |
| 2026-05-01 10:58 | 50.25215 | 167.95001 | 37025 ft | 503 kts | 57° |
| 2026-05-01 10:58 | 50.28485 | 168.04590 | 37006 ft | 503 kts | 58° |
| 2026-05-01 10:59 | 50.31772 | 168.14270 | 36995 ft | 503 kts | 58° |
| 2026-05-01 10:59 | 50.35045 | 168.23948 | 36995 ft | 503 kts | 58° |
| 2026-05-01 11:00 | 50.38321 | 168.33672 | 36987 ft | 503 kts | 58° |
| 2026-05-01 11:00 | 50.41561 | 168.43324 | 36984 ft | 503 kts | 58° |
| 2026-05-01 11:01 | 50.44819 | 168.53064 | 36974 ft | 504 kts | 59° |
| 2026-05-01 11:01 | 50.48070 | 168.62827 | 36966 ft | 504 kts | 59° |
| 2026-05-01 11:02 | 50.51310 | 168.72591 | 36965 ft | 504 kts | 59° |
| 2026-05-01 11:02 | 50.54523 | 168.82313 | 36969 ft | 504 kts | 59° |
| 2026-05-01 11:03 | 50.57750 | 168.92113 | 36961 ft | 504 kts | 59° |
| 2026-05-01 11:03 | 50.60969 | 169.01930 | 36952 ft | 504 kts | 59° |
| 2026-05-01 11:04 | 50.64180 | 169.11761 | 36951 ft | 504 kts | 59° |
| 2026-05-01 11:04 | 50.67276 | 169.21278 | 36945 ft | 504 kts | 59° |
| 2026-05-01 11:05 | 50.70470 | 169.31128 | 36932 ft | 504 kts | 60° |
| 2026-05-01 11:05 | 50.73643 | 169.40959 | 36938 ft | 504 kts | 60° |
| 2026-05-01 11:06 | 50.76823 | 169.50848 | 36928 ft | 504 kts | 60° |
| 2026-05-01 11:06 | 50.79992 | 169.60747 | 36924 ft | 504 kts | 60° |
| 2026-05-01 11:07 | 50.84730 | 169.75609 | 36910 ft | 504 kts | 61° |
| 2026-05-01 11:07 | 50.87860 | 169.85481 | 36902 ft | 504 kts | 61° |
| 2026-05-01 11:08 | 50.90998 | 169.95420 | 36907 ft | 504 kts | 61° |
| 2026-05-01 11:09 | 50.95694 | 170.10366 | 36912 ft | 504 kts | 61° |
| 2026-05-01 11:09 | 50.98796 | 170.20286 | 36898 ft | 504 kts | 62° |
| 2026-05-01 11:10 | 51.03458 | 170.35277 | 36894 ft | 504 kts | 62° |
| 2026-05-01 11:10 | 51.06552 | 170.45275 | 36892 ft | 504 kts | 62° |
| 2026-05-01 11:11 | 51.09637 | 170.55285 | 36894 ft | 504 kts | 62° |
| 2026-05-01 11:11 | 51.12698 | 170.65259 | 36887 ft | 503 kts | 62° |
| 2026-05-01 11:12 | 51.15763 | 170.75286 | 36884 ft | 503 kts | 62° |
| 2026-05-01 11:12 | 51.18820 | 170.85328 | 36876 ft | 503 kts | 62° |
| 2026-05-01 11:13 | 51.21870 | 170.95388 | 36878 ft | 504 kts | 62° |
| 2026-05-01 11:13 | 51.24916 | 171.05479 | 36871 ft | 504 kts | 62° |
| 2026-05-01 11:14 | 51.27932 | 171.15513 | 36870 ft | 504 kts | 63° |
| 2026-05-01 11:14 | 51.30959 | 171.25621 | 36858 ft | 504 kts | 63° |
| 2026-05-01 11:15 | 51.33980 | 171.35757 | 36861 ft | 504 kts | 63° |
| 2026-05-01 11:15 | 51.36989 | 171.45889 | 36850 ft | 503 kts | 63° |
| 2026-05-01 11:16 | 51.39985 | 171.56025 | 36844 ft | 503 kts | 63° |
| 2026-05-01 11:16 | 51.43284 | 171.65810 | 36848 ft | 501 kts | 57° |
| 2026-05-01 11:17 | 51.46898 | 171.75366 | 36836 ft | 501 kts | 57° |
| 2026-05-01 11:17 | 51.50473 | 171.84969 | 36839 ft | 501 kts | 58° |
| 2026-05-01 11:18 | 51.53970 | 171.94631 | 36833 ft | 501 kts | 59° |
| 2026-05-01 11:18 | 51.57441 | 172.04353 | 36829 ft | 501 kts | 59° |
| 2026-05-01 11:19 | 51.60879 | 172.14023 | 36821 ft | 501 kts | 59° |
| 2026-05-01 11:19 | 51.64336 | 172.23772 | 36820 ft | 501 kts | 59° |
| 2026-05-01 11:20 | 51.67785 | 172.33526 | 36815 ft | 501 kts | 59° |
| 2026-05-01 11:20 | 51.71223 | 172.43291 | 36807 ft | 500 kts | 59° |
| 2026-05-01 11:21 | 51.74653 | 172.53072 | 36810 ft | 500 kts | 59° |
| 2026-05-01 11:21 | 51.78056 | 172.62811 | 36804 ft | 500 kts | 59° |
| 2026-05-01 11:22 | 51.81466 | 172.72609 | 36814 ft | 501 kts | 60° |
| 2026-05-01 11:22 | 51.84871 | 172.82432 | 36796 ft | 500 kts | 60° |
| 2026-05-01 11:23 | 51.88271 | 172.92280 | 36800 ft | 500 kts | 60° |
| 2026-05-01 11:23 | 51.91089 | 173.00470 | 36790 ft | 500 kts | 60° |
| 2026-05-01 11:24 | 51.94469 | 173.10330 | 36794 ft | 500 kts | 60° |
| 2026-05-01 11:25 | 51.99525 | 173.25148 | 36782 ft | 500 kts | 60° |
| 2026-05-01 11:25 | 52.04541 | 173.39940 | 36782 ft | 501 kts | 61° |
| 2026-05-01 11:26 | 52.09562 | 173.54833 | 36778 ft | 500 kts | 61° |
| 2026-05-01 11:27 | 52.12902 | 173.64793 | 36780 ft | 500 kts | 61° |
| 2026-05-01 11:27 | 52.16229 | 173.74757 | 36771 ft | 501 kts | 61° |
| 2026-05-01 11:28 | 52.19528 | 173.84668 | 36771 ft | 500 kts | 61° |
| 2026-05-01 11:28 | 52.22843 | 173.94671 | 36766 ft | 501 kts | 62° |
| 2026-05-01 11:29 | 52.27798 | 174.09698 | 36760 ft | 501 kts | 61° |
| 2026-05-01 11:30 | 52.32728 | 174.24749 | 36759 ft | 501 kts | 62° |
| 2026-05-01 11:30 | 52.35993 | 174.34765 | 36757 ft | 502 kts | 61° |
| 2026-05-01 11:31 | 52.39272 | 174.44862 | 36747 ft | 502 kts | 62° |
| 2026-05-01 11:31 | 52.42535 | 174.54951 | 36750 ft | 500 kts | 62° |
| 2026-05-01 11:32 | 52.45780 | 174.65029 | 36741 ft | 499 kts | 62° |
| 2026-05-01 11:32 | 52.49015 | 174.75108 | 36741 ft | 499 kts | 63° |
| 2026-05-01 11:33 | 52.52238 | 174.85194 | 36729 ft | 498 kts | 63° |
| 2026-05-01 11:33 | 52.55449 | 174.95292 | 36730 ft | 499 kts | 62° |
| 2026-05-01 11:34 | 52.58638 | 175.05353 | 36724 ft | 498 kts | 63° |
| 2026-05-01 11:34 | 52.61830 | 175.15470 | 36725 ft | 497 kts | 63° |
| 2026-05-01 11:35 | 52.65015 | 175.25611 | 36725 ft | 498 kts | 63° |
| 2026-05-01 11:35 | 52.68171 | 175.35697 | 36725 ft | 497 kts | 63° |
| 2026-05-01 11:36 | 52.71329 | 175.45829 | 36719 ft | 497 kts | 63° |
| 2026-05-01 11:36 | 52.74479 | 175.55988 | 36719 ft | 497 kts | 63° |
| 2026-05-01 11:37 | 52.77629 | 175.66182 | 36711 ft | 497 kts | 63° |
| 2026-05-01 11:37 | 52.80736 | 175.76278 | 36712 ft | 497 kts | 63° |
| 2026-05-01 11:38 | 52.83860 | 175.86480 | 36708 ft | 497 kts | 63° |
| 2026-05-01 11:38 | 52.86977 | 175.96695 | 36700 ft | 496 kts | 64° |
| 2026-05-01 11:39 | 52.90080 | 176.06900 | 36703 ft | 496 kts | 64° |
| 2026-05-01 11:39 | 52.93170 | 176.17121 | 36678 ft | 496 kts | 64° |
| 2026-05-01 11:40 | 52.96231 | 176.27280 | 36693 ft | 496 kts | 64° |
| 2026-05-01 11:40 | 52.99271 | 176.37416 | 36688 ft | 495 kts | 64° |
| 2026-05-01 11:41 | 53.02315 | 176.47610 | 36693 ft | 495 kts | 64° |
| 2026-05-01 11:41 | 53.05368 | 176.57875 | 36685 ft | 495 kts | 64° |
| 2026-05-01 11:42 | 53.08412 | 176.68151 | 36684 ft | 495 kts | 65° |
| 2026-05-01 11:42 | 53.11447 | 176.78446 | 36662 ft | 495 kts | 65° |
| 2026-05-01 11:43 | 53.14457 | 176.88704 | 36659 ft | 495 kts | 65° |
| 2026-05-01 11:43 | 53.17477 | 176.99031 | 36650 ft | 496 kts | 65° |
| 2026-05-01 11:44 | 53.22002 | 177.14599 | 36663 ft | 496 kts | 65° |
| 2026-05-01 11:44 | 53.24984 | 177.24916 | 36663 ft | 495 kts | 66° |
| 2026-05-01 11:45 | 53.27973 | 177.35302 | 36655 ft | 495 kts | 65° |
| 2026-05-01 11:45 | 53.30951 | 177.45692 | 36638 ft | 495 kts | 66° |
| 2026-05-01 11:46 | 53.33922 | 177.56105 | 36630 ft | 496 kts | 66° |
| 2026-05-01 11:46 | 53.36869 | 177.66484 | 36629 ft | 496 kts | 66° |
| 2026-05-01 11:47 | 53.39817 | 177.76911 | 36628 ft | 495 kts | 66° |
| 2026-05-01 11:47 | 53.42763 | 177.87377 | 36640 ft | 496 kts | 66° |
| 2026-05-01 11:48 | 53.45675 | 177.97768 | 36634 ft | 495 kts | 67° |
| 2026-05-01 11:48 | 53.48597 | 178.08240 | 36632 ft | 495 kts | 67° |
| 2026-05-01 11:49 | 53.51509 | 178.18726 | 36622 ft | 494 kts | 67° |
| 2026-05-01 11:49 | 53.54406 | 178.29204 | 36622 ft | 494 kts | 67° |
| 2026-05-01 11:50 | 53.57273 | 178.39622 | 36619 ft | 494 kts | 67° |
| 2026-05-01 11:50 | 53.60154 | 178.50138 | 36619 ft | 494 kts | 67° |
| 2026-05-01 11:51 | 53.63026 | 178.60666 | 36610 ft | 494 kts | 68° |
| 2026-05-01 11:51 | 53.65886 | 178.71208 | 36614 ft | 494 kts | 68° |
| 2026-05-01 11:52 | 53.68726 | 178.81717 | 36605 ft | 494 kts | 68° |
| 2026-05-01 11:52 | 53.71571 | 178.92293 | 36606 ft | 494 kts | 68° |
| 2026-05-01 11:53 | 53.74403 | 179.02871 | 36598 ft | 495 kts | 68° |
| 2026-05-01 11:53 | 53.77229 | 179.13474 | 36591 ft | 494 kts | 68° |
| 2026-05-01 11:54 | 53.80024 | 179.24012 | 36589 ft | 493 kts | 68° |
| 2026-05-01 11:54 | 53.82828 | 179.34631 | 36589 ft | 494 kts | 69° |
| 2026-05-01 11:55 | 53.85621 | 179.45259 | 36577 ft | 493 kts | 69° |
| 2026-05-01 11:55 | 53.88402 | 179.55896 | 36578 ft | 494 kts | 69° |
| 2026-05-01 11:56 | 53.91176 | 179.66552 | 36572 ft | 494 kts | 69° |
| 2026-05-01 11:56 | 53.93942 | 179.77224 | 36572 ft | 493 kts | 69° |
| 2026-05-01 11:57 | 53.96679 | 179.87843 | 36564 ft | 494 kts | 69° |
| 2026-05-01 11:57 | 53.99215 | 179.98696 | 36569 ft | 491 kts | 77° |
| 2026-05-01 11:58 | 54.00255 | -179.89917 | 36555 ft | 488 kts | 88° |
| 2026-05-01 11:59 | 54.00963 | -179.72651 | 36557 ft | 490 kts | 89° |
| 2026-05-01 11:59 | 54.01377 | -179.61084 | 36558 ft | 490 kts | 89° |
| 2026-05-01 12:00 | 54.02019 | -179.43740 | 36554 ft | 490 kts | 89° |
| 2026-05-01 12:01 | 54.02645 | -179.26439 | 36542 ft | 489 kts | 89° |
| 2026-05-01 12:01 | 54.03051 | -179.14853 | 36537 ft | 490 kts | 89° |
| 2026-05-01 12:02 | 54.03445 | -179.03275 | 36537 ft | 490 kts | 90° |
| 2026-05-01 12:02 | 54.03825 | -178.91763 | 36524 ft | 490 kts | 89° |
| 2026-05-01 12:03 | 54.04196 | -178.80192 | 36528 ft | 490 kts | 90° |
| 2026-05-01 12:03 | 54.04555 | -178.68609 | 36522 ft | 490 kts | 89° |
| 2026-05-01 12:04 | 54.04902 | -178.57100 | 36523 ft | 489 kts | 90° |
| 2026-05-01 12:04 | 54.05239 | -178.45543 | 36511 ft | 489 kts | 90° |
| 2026-05-01 12:05 | 54.05566 | -178.33967 | 36511 ft | 489 kts | 90° |
| 2026-05-01 12:05 | 54.06037 | -178.16596 | 36507 ft | 489 kts | 91° |
| 2026-05-01 12:06 | 54.06335 | -178.04999 | 36498 ft | 490 kts | 91° |
| 2026-05-01 12:06 | 54.06619 | -177.93486 | 36498 ft | 490 kts | 91° |
| 2026-05-01 12:07 | 54.06896 | -177.81897 | 36490 ft | 490 kts | 91° |
| 2026-05-01 12:07 | 54.07161 | -177.70309 | 36490 ft | 490 kts | 90° |
| 2026-05-01 12:08 | 54.07416 | -177.58709 | 36482 ft | 490 kts | 91° |
| 2026-05-01 12:08 | 54.07658 | -177.47193 | 36481 ft | 489 kts | 91° |
| 2026-05-01 12:09 | 54.07892 | -177.35607 | 36471 ft | 489 kts | 91° |
| 2026-05-01 12:09 | 54.08115 | -177.23978 | 36464 ft | 490 kts | 91° |
| 2026-05-01 12:10 | 54.08425 | -177.06568 | 36465 ft | 490 kts | 92° |
| 2026-05-01 12:11 | 54.08707 | -176.89218 | 36456 ft | 490 kts | 91° |
| 2026-05-01 12:11 | 54.08884 | -176.77587 | 36449 ft | 490 kts | 92° |
| 2026-05-01 12:12 | 54.09050 | -176.66043 | 36451 ft | 490 kts | 91° |
| 2026-05-01 12:12 | 54.09204 | -176.54424 | 36437 ft | 491 kts | 92° |
| 2026-05-01 12:13 | 54.09325 | -176.44669 | 36439 ft | 491 kts | 92° |
| 2026-05-01 12:13 | 54.09457 | -176.33124 | 36432 ft | 491 kts | 92° |
| 2026-05-01 12:14 | 54.09580 | -176.21480 | 36434 ft | 491 kts | 92° |
| 2026-05-01 12:14 | 54.09690 | -176.09825 | 36425 ft | 491 kts | 92° |
| 2026-05-01 12:15 | 54.09790 | -175.98192 | 36417 ft | 491 kts | 92° |
| 2026-05-01 12:15 | 54.09880 | -175.86537 | 36418 ft | 491 kts | 92° |
| 2026-05-01 12:16 | 54.09959 | -175.74953 | 36402 ft | 491 kts | 92° |
| 2026-05-01 12:16 | 54.10026 | -175.63275 | 36407 ft | 492 kts | 93° |
| 2026-05-01 12:17 | 54.10081 | -175.51624 | 36402 ft | 492 kts | 93° |
| 2026-05-01 12:17 | 54.10125 | -175.39961 | 36401 ft | 492 kts | 93° |
| 2026-05-01 12:18 | 54.10160 | -175.28322 | 36388 ft | 492 kts | 93° |
| 2026-05-01 12:18 | 54.10181 | -175.16727 | 36386 ft | 492 kts | 93° |
| 2026-05-01 12:19 | 54.10191 | -175.05032 | 36375 ft | 493 kts | 93° |
| 2026-05-01 12:19 | 54.10192 | -174.93352 | 36376 ft | 492 kts | 93° |
| 2026-05-01 12:20 | 54.10179 | -174.81671 | 36367 ft | 493 kts | 93° |
| 2026-05-01 12:20 | 54.10156 | -174.69998 | 36355 ft | 493 kts | 94° |
| 2026-05-01 12:21 | 54.10118 | -174.58302 | 36363 ft | 494 kts | 94° |
| 2026-05-01 12:21 | 54.10071 | -174.46657 | 36356 ft | 494 kts | 94° |
| 2026-05-01 12:22 | 54.10013 | -174.34945 | 36355 ft | 494 kts | 93° |
| 2026-05-01 12:22 | 54.09946 | -174.23225 | 36349 ft | 494 kts | 94° |
| 2026-05-01 12:23 | 54.09865 | -174.11508 | 36341 ft | 494 kts | 94° |
| 2026-05-01 12:23 | 54.09774 | -173.99808 | 36330 ft | 494 kts | 95° |
| 2026-05-01 12:24 | 54.09671 | -173.88167 | 36337 ft | 493 kts | 95° |
| 2026-05-01 12:24 | 54.09556 | -173.76491 | 36327 ft | 492 kts | 94° |
| 2026-05-01 12:25 | 54.09367 | -173.59066 | 36310 ft | 493 kts | 95° |
| 2026-05-01 12:26 | 54.09223 | -173.47366 | 36313 ft | 494 kts | 94° |
| 2026-05-01 12:26 | 54.08987 | -173.29801 | 36304 ft | 494 kts | 96° |
| 2026-05-01 12:27 | 54.08727 | -173.12231 | 36282 ft | 494 kts | 95° |
| 2026-05-01 12:28 | 54.08443 | -172.94696 | 36281 ft | 496 kts | 95° |
| 2026-05-01 12:29 | 54.08129 | -172.77086 | 36272 ft | 496 kts | 96° |
| 2026-05-01 12:29 | 54.07791 | -172.59439 | 36247 ft | 496 kts | 96° |
| 2026-05-01 12:30 | 54.07427 | -172.41786 | 36262 ft | 498 kts | 96° |
| 2026-05-01 12:31 | 54.07167 | -172.29988 | 36252 ft | 498 kts | 96° |
| 2026-05-01 12:31 | 54.06897 | -172.18256 | 36250 ft | 498 kts | 95° |
| 2026-05-01 12:32 | 54.06616 | -172.06450 | 36228 ft | 498 kts | 96° |
| 2026-05-01 12:32 | 54.06172 | -171.88715 | 36234 ft | 500 kts | 96° |
| 2026-05-01 12:33 | 54.05863 | -171.76951 | 36233 ft | 500 kts | 96° |
| 2026-05-01 12:33 | 54.05539 | -171.65105 | 36225 ft | 500 kts | 96° |
| 2026-05-01 12:34 | 54.05205 | -171.53289 | 36202 ft | 500 kts | 96° |
| 2026-05-01 12:34 | 54.04857 | -171.41427 | 36219 ft | 501 kts | 96° |
| 2026-05-01 12:35 | 54.04498 | -171.29558 | 36207 ft | 502 kts | 96° |
| 2026-05-01 12:35 | 54.04129 | -171.17768 | 36216 ft | 502 kts | 97° |
| 2026-05-01 12:36 | 54.03747 | -171.05923 | 36198 ft | 502 kts | 97° |
| 2026-05-01 12:36 | 54.03353 | -170.94043 | 36197 ft | 503 kts | 97° |
| 2026-05-01 12:37 | 54.02946 | -170.82169 | 36194 ft | 503 kts | 97° |
| 2026-05-01 12:37 | 54.02526 | -170.70259 | 36195 ft | 503 kts | 97° |
| 2026-05-01 12:38 | 54.02098 | -170.58425 | 36192 ft | 503 kts | 97° |
| 2026-05-01 12:38 | 54.01656 | -170.46543 | 36175 ft | 503 kts | 97° |
| 2026-05-01 12:39 | 54.01201 | -170.34638 | 36187 ft | 505 kts | 98° |
| 2026-05-01 12:39 | 54.00735 | -170.22771 | 36183 ft | 505 kts | 98° |
| 2026-05-01 12:40 | 54.00257 | -170.10860 | 36183 ft | 505 kts | 98° |
| 2026-05-01 12:40 | 53.99941 | -169.98917 | 36179 ft | 509 kts | 91° |
| 2026-05-01 12:41 | 54.00317 | -169.86893 | 36187 ft | 510 kts | 90° |
| 2026-05-01 12:41 | 54.00798 | -169.74996 | 36186 ft | 511 kts | 90° |
| 2026-05-01 12:42 | 54.01289 | -169.62914 | 36169 ft | 511 kts | 90° |
| 2026-05-01 12:42 | 54.01753 | -169.50922 | 36176 ft | 511 kts | 90° |
| 2026-05-01 12:43 | 54.02201 | -169.38858 | 36161 ft | 511 kts | 91° |
| 2026-05-01 12:43 | 54.02635 | -169.26755 | 36172 ft | 513 kts | 91° |
| 2026-05-01 12:44 | 54.03057 | -169.14665 | 36167 ft | 512 kts | 91° |
| 2026-05-01 12:45 | 54.03865 | -168.90531 | 36174 ft | 512 kts | 91° |
| 2026-05-01 12:45 | 54.04252 | -168.78409 | 36171 ft | 512 kts | 91° |
| 2026-05-01 12:46 | 54.04626 | -168.66317 | 36168 ft | 512 kts | 91° |
| 2026-05-01 12:46 | 54.04986 | -168.54291 | 36165 ft | 512 kts | 91° |
| 2026-05-01 12:47 | 54.05336 | -168.42182 | 36166 ft | 512 kts | 91° |
| 2026-05-01 12:47 | 54.05674 | -168.30087 | 36151 ft | 512 kts | 92° |
| 2026-05-01 12:48 | 54.06001 | -168.17926 | 36171 ft | 515 kts | 92° |
| 2026-05-01 12:48 | 54.06316 | -168.05710 | 36168 ft | 516 kts | 92° |
| 2026-05-01 12:49 | 54.06618 | -167.93579 | 36171 ft | 516 kts | 92° |
| 2026-05-01 12:49 | 54.06910 | -167.81376 | 36173 ft | 516 kts | 92° |
| 2026-05-01 12:50 | 54.07190 | -167.69152 | 36174 ft | 517 kts | 92° |
| 2026-05-01 12:50 | 54.07457 | -167.56881 | 36172 ft | 518 kts | 93° |
| 2026-05-01 12:51 | 54.07712 | -167.44614 | 36173 ft | 518 kts | 93° |
| 2026-05-01 12:52 | 54.08070 | -167.26290 | 36177 ft | 518 kts | 93° |
| 2026-05-01 12:52 | 54.08402 | -167.07872 | 36176 ft | 519 kts | 93° |
| 2026-05-01 12:53 | 54.08706 | -166.89417 | 36175 ft | 520 kts | 94° |
| 2026-05-01 12:54 | 54.08893 | -166.77108 | 36193 ft | 519 kts | 94° |
| 2026-05-01 12:54 | 54.09150 | -166.58685 | 36196 ft | 522 kts | 94° |
| 2026-05-01 12:55 | 54.09379 | -166.40074 | 36197 ft | 523 kts | 94° |
| 2026-05-01 12:56 | 54.09517 | -166.27681 | 36189 ft | 523 kts | 95° |
| 2026-05-01 12:56 | 54.09642 | -166.15339 | 36185 ft | 523 kts | 95° |
| 2026-05-01 12:57 | 54.09755 | -166.02907 | 36179 ft | 525 kts | 95° |
| 2026-05-01 12:57 | 54.09900 | -165.84200 | 36183 ft | 526 kts | 95° |
| 2026-05-01 12:58 | 54.09980 | -165.71743 | 36181 ft | 526 kts | 95° |
| 2026-05-01 12:59 | 54.10078 | -165.53118 | 36184 ft | 527 kts | 96° |
| 2026-05-01 12:59 | 54.10144 | -165.34333 | 36192 ft | 528 kts | 96° |
| 2026-05-01 13:00 | 54.10183 | -165.15543 | 36199 ft | 527 kts | 96° |
| 2026-05-01 13:01 | 54.10194 | -164.96870 | 36201 ft | 529 kts | 97° |
| 2026-05-01 13:02 | 54.10173 | -164.78030 | 36211 ft | 530 kts | 97° |
| 2026-05-01 13:07 | 54.09154 | -163.41652 | 36245 ft | 533 kts | 98° |
| 2026-05-01 13:08 | 54.08981 | -163.29024 | 36253 ft | 533 kts | 98° |
| 2026-05-01 13:08 | 54.08795 | -163.16392 | 36257 ft | 533 kts | 98° |
| 2026-05-01 13:09 | 54.08598 | -163.03862 | 36256 ft | 532 kts | 98° |
| 2026-05-01 13:09 | 54.08387 | -162.91254 | 36261 ft | 532 kts | 99° |
| 2026-05-01 13:10 | 54.08162 | -162.78655 | 36258 ft | 533 kts | 99° |
| 2026-05-01 13:10 | 54.07922 | -162.66004 | 36265 ft | 533 kts | 99° |
| 2026-05-01 13:11 | 54.07670 | -162.53387 | 36273 ft | 533 kts | 99° |
| 2026-05-01 13:11 | 54.07407 | -162.40824 | 36286 ft | 533 kts | 99° |
| 2026-05-01 13:12 | 54.07129 | -162.28177 | 36264 ft | 534 kts | 100° |
| 2026-05-01 13:12 | 54.06835 | -162.15507 | 36289 ft | 535 kts | 100° |
| 2026-05-01 13:13 | 54.06529 | -162.02827 | 36289 ft | 536 kts | 100° |
| 2026-05-01 13:13 | 54.06211 | -161.90151 | 36296 ft | 535 kts | 100° |
| 2026-05-01 13:14 | 54.05883 | -161.77663 | 36249 ft | 535 kts | 100° |
| 2026-05-01 13:14 | 54.05537 | -161.64987 | 36303 ft | 537 kts | 101° |
| 2026-05-01 13:15 | 54.05176 | -161.52282 | 36310 ft | 537 kts | 101° |
| 2026-05-01 13:15 | 54.04803 | -161.39570 | 36311 ft | 537 kts | 101° |
| 2026-05-01 13:16 | 54.04419 | -161.26935 | 36318 ft | 537 kts | 101° |
| 2026-05-01 13:16 | 54.04019 | -161.14247 | 36327 ft | 538 kts | 102° |
| 2026-05-01 13:17 | 54.03177 | -160.88838 | 36339 ft | 538 kts | 102° |
| 2026-05-01 13:18 | 54.02511 | -160.69764 | 36337 ft | 538 kts | 102° |
| 2026-05-01 13:18 | 54.02048 | -160.57038 | 36340 ft | 539 kts | 102° |
| 2026-05-01 13:19 | 54.01570 | -160.44279 | 36348 ft | 540 kts | 103° |
| 2026-05-01 13:20 | 54.00833 | -160.25183 | 36350 ft | 540 kts | 103° |
| 2026-05-01 13:20 | 54.00327 | -160.12528 | 36320 ft | 539 kts | 103° |
| 2026-05-01 13:21 | 53.99932 | -159.99692 | 36563 ft | 549 kts | 96° |
| 2026-05-01 13:21 | 54.00100 | -159.93188 | 36942 ft | 548 kts | 95° |
| 2026-05-01 13:21 | 54.00328 | -159.86748 | 37357 ft | 544 kts | 94° |
| 2026-05-01 13:21 | 54.00581 | -159.80400 | 37699 ft | 542 kts | 94° |
| 2026-05-01 13:22 | 54.00846 | -159.74021 | 38013 ft | 540 kts | 94° |
| 2026-05-01 13:22 | 54.01109 | -159.67646 | 38232 ft | 539 kts | 94° |
| 2026-05-01 13:22 | 54.01364 | -159.61289 | 38346 ft | 540 kts | 94° |
| 2026-05-01 13:22 | 54.01614 | -159.54885 | 38339 ft | 540 kts | 94° |
| 2026-05-01 13:23 | 54.02090 | -159.42213 | 38373 ft | 541 kts | 95° |
| 2026-05-01 13:23 | 54.02553 | -159.29406 | 38379 ft | 541 kts | 95° |
| 2026-05-01 13:24 | 54.03003 | -159.16620 | 38380 ft | 541 kts | 95° |
| 2026-05-01 13:25 | 54.03651 | -158.97461 | 38350 ft | 541 kts | 95° |
| 2026-05-01 13:25 | 54.04063 | -158.84742 | 38390 ft | 542 kts | 95° |
| 2026-05-01 13:26 | 54.04466 | -158.71926 | 38392 ft | 543 kts | 95° |
| 2026-05-01 13:26 | 54.04857 | -158.59091 | 38395 ft | 542 kts | 95° |
| 2026-05-01 13:27 | 54.05233 | -158.46281 | 38392 ft | 542 kts | 95° |
| 2026-05-01 13:27 | 54.05770 | -158.27007 | 38398 ft | 544 kts | 95° |
| 2026-05-01 13:28 | 54.06278 | -158.07724 | 38401 ft | 544 kts | 95° |
| 2026-05-01 13:29 | 54.06909 | -157.81984 | 38404 ft | 543 kts | 96° |
| 2026-05-01 13:31 | 54.07747 | -157.43502 | 38404 ft | 543 kts | 96° |
| 2026-05-01 13:32 | 54.08353 | -157.11337 | 38420 ft | 544 kts | 96° |
| 2026-05-01 13:33 | 54.08875 | -156.79144 | 38431 ft | 544 kts | 96° |
| 2026-05-01 13:34 | 54.09229 | -156.53434 | 38440 ft | 545 kts | 96° |
| 2026-05-01 13:35 | 54.09461 | -156.34041 | 38436 ft | 545 kts | 97° |
| 2026-05-01 13:36 | 54.09660 | -156.14748 | 38449 ft | 544 kts | 97° |
| 2026-05-01 13:36 | 54.09827 | -155.95344 | 38454 ft | 547 kts | 97° |
| 2026-05-01 13:37 | 54.09923 | -155.82366 | 38457 ft | 547 kts | 97° |
| 2026-05-01 13:37 | 54.10006 | -155.69394 | 38463 ft | 547 kts | 97° |
| 2026-05-01 13:38 | 54.10102 | -155.50048 | 38425 ft | 546 kts | 97° |
| 2026-05-01 13:39 | 54.10147 | -155.37060 | 38474 ft | 550 kts | 97° |
| 2026-05-01 13:39 | 54.10180 | -155.24021 | 38476 ft | 550 kts | 97° |
| 2026-05-01 13:40 | 54.10200 | -155.10974 | 38487 ft | 550 kts | 97° |
| 2026-05-01 13:40 | 54.10205 | -154.97936 | 38487 ft | 550 kts | 97° |
| 2026-05-01 13:41 | 54.10196 | -154.84970 | 38499 ft | 552 kts | 97° |
| 2026-05-01 13:41 | 54.10170 | -154.71858 | 38501 ft | 554 kts | 97° |
| 2026-05-01 13:42 | 54.10133 | -154.58710 | 38506 ft | 554 kts | 97° |
| 2026-05-01 13:42 | 54.10082 | -154.45668 | 38527 ft | 553 kts | 97° |
| 2026-05-01 13:43 | 54.10017 | -154.32561 | 38484 ft | 552 kts | 97° |
| 2026-05-01 13:43 | 54.09935 | -154.19423 | 38532 ft | 555 kts | 97° |
| 2026-05-01 13:44 | 54.09840 | -154.06251 | 38532 ft | 556 kts | 97° |
| 2026-05-01 13:44 | 54.09731 | -153.93126 | 38542 ft | 556 kts | 97° |
| 2026-05-01 13:45 | 54.09609 | -153.80092 | 38541 ft | 556 kts | 98° |
| 2026-05-01 13:45 | 54.09472 | -153.67056 | 38559 ft | 558 kts | 97° |
| 2026-05-01 13:46 | 54.09321 | -153.54128 | 38554 ft | 559 kts | 97° |
| 2026-05-01 13:46 | 54.09156 | -153.41004 | 38568 ft | 559 kts | 98° |
| 2026-05-01 13:47 | 54.08974 | -153.27772 | 38578 ft | 559 kts | 98° |
| 2026-05-01 13:47 | 54.08779 | -153.14602 | 38557 ft | 557 kts | 98° |
| 2026-05-01 13:48 | 54.08570 | -153.01470 | 38592 ft | 558 kts | 98° |
| 2026-05-01 13:48 | 54.08347 | -152.88340 | 38593 ft | 558 kts | 98° |
| 2026-05-01 13:49 | 54.08149 | -152.77366 | 38598 ft | 558 kts | 98° |
| 2026-05-01 13:49 | 54.07857 | -152.62097 | 38601 ft | 558 kts | 98° |
| 2026-05-01 13:50 | 54.07634 | -152.51068 | 38610 ft | 560 kts | 98° |
| 2026-05-01 13:50 | 54.07354 | -152.37921 | 38615 ft | 561 kts | 98° |
| 2026-05-01 13:51 | 54.07061 | -152.24731 | 38615 ft | 561 kts | 98° |
| 2026-05-01 13:51 | 54.06752 | -152.11519 | 38628 ft | 561 kts | 98° |
| 2026-05-01 13:52 | 54.06428 | -151.98281 | 38637 ft | 561 kts | 98° |
| 2026-05-01 13:52 | 54.06092 | -151.85131 | 38641 ft | 559 kts | 98° |
| 2026-05-01 13:53 | 54.05743 | -151.72051 | 38633 ft | 559 kts | 98° |
| 2026-05-01 13:53 | 54.05186 | -151.52230 | 38654 ft | 559 kts | 99° |
| 2026-05-01 13:54 | 54.04799 | -151.39085 | 38643 ft | 559 kts | 98° |
| 2026-05-01 13:54 | 54.04396 | -151.25920 | 38666 ft | 563 kts | 98° |
| 2026-05-01 13:55 | 54.03978 | -151.12700 | 38676 ft | 564 kts | 99° |
| 2026-05-01 13:55 | 54.03545 | -150.99435 | 38679 ft | 564 kts | 99° |
| 2026-05-01 13:56 | 54.03137 | -150.87346 | 38686 ft | 563 kts | 99° |
| 2026-05-01 13:56 | 54.02672 | -150.74032 | 38731 ft | 568 kts | 98° |
| 2026-05-01 13:57 | 54.02194 | -150.60771 | 38698 ft | 566 kts | 99° |
| 2026-05-01 13:57 | 54.01704 | -150.47503 | 38715 ft | 565 kts | 99° |
| 2026-05-01 13:58 | 54.01198 | -150.34246 | 38720 ft | 565 kts | 99° |
| 2026-05-01 13:58 | 54.00677 | -150.21005 | 38720 ft | 567 kts | 99° |
| 2026-05-01 13:59 | 54.00139 | -150.07723 | 38728 ft | 569 kts | 99° |
| 2026-05-01 13:59 | 53.99570 | -149.94328 | 38741 ft | 569 kts | 100° |
| 2026-05-01 14:00 | 53.98810 | -149.81043 | 38758 ft | 568 kts | 101° |
| 2026-05-01 14:00 | 53.97976 | -149.67744 | 38742 ft | 569 kts | 101° |
| 2026-05-01 14:01 | 53.97152 | -149.54416 | 38769 ft | 572 kts | 101° |
| 2026-05-01 14:01 | 53.96333 | -149.41042 | 38769 ft | 571 kts | 101° |
| 2026-05-01 14:02 | 53.95512 | -149.27748 | 38782 ft | 568 kts | 101° |
| 2026-05-01 14:02 | 53.94673 | -149.14458 | 38760 ft | 567 kts | 101° |
| 2026-05-01 14:03 | 53.93819 | -149.01192 | 38793 ft | 570 kts | 101° |
| 2026-05-01 14:03 | 53.92949 | -148.87922 | 38806 ft | 571 kts | 101° |
| 2026-05-01 14:04 | 53.92057 | -148.74546 | 38804 ft | 571 kts | 101° |
| 2026-05-01 14:04 | 53.91151 | -148.61177 | 38818 ft | 571 kts | 101° |
| 2026-05-01 14:05 | 53.90233 | -148.47857 | 38813 ft | 573 kts | 100° |
| 2026-05-01 14:05 | 53.89298 | -148.34515 | 38832 ft | 574 kts | 101° |
| 2026-05-01 14:06 | 53.88341 | -148.21074 | 38847 ft | 574 kts | 101° |
| 2026-05-01 14:06 | 53.87375 | -148.07720 | 38847 ft | 572 kts | 101° |
| 2026-05-01 14:07 | 53.86397 | -147.94405 | 38853 ft | 572 kts | 100° |
| 2026-05-01 14:08 | 53.84895 | -147.74359 | 38870 ft | 573 kts | 101° |
| 2026-05-01 14:08 | 53.83876 | -147.61020 | 38870 ft | 573 kts | 101° |
| 2026-05-01 14:09 | 53.82844 | -147.47700 | 38879 ft | 573 kts | 101° |
| 2026-05-01 14:09 | 53.81793 | -147.34349 | 38895 ft | 575 kts | 101° |
| 2026-05-01 14:10 | 53.80726 | -147.20970 | 38895 ft | 576 kts | 101° |
| 2026-05-01 14:10 | 53.79644 | -147.07601 | 38908 ft | 576 kts | 101° |
| 2026-05-01 14:11 | 53.78552 | -146.94307 | 38908 ft | 576 kts | 101° |
| 2026-05-01 14:11 | 53.76891 | -146.74442 | 38922 ft | 576 kts | 101° |
| 2026-05-01 14:12 | 53.75772 | -146.61266 | 38919 ft | 575 kts | 101° |
| 2026-05-01 14:12 | 53.74638 | -146.48090 | 38920 ft | 575 kts | 101° |
| 2026-05-01 14:13 | 53.73675 | -146.37037 | 38939 ft | 575 kts | 101° |
| 2026-05-01 14:13 | 53.72349 | -146.22014 | 38952 ft | 575 kts | 101° |
| 2026-05-01 14:14 | 53.71186 | -146.09023 | 38952 ft | 575 kts | 101° |
| 2026-05-01 14:14 | 53.69980 | -145.95725 | 38966 ft | 575 kts | 101° |
| 2026-05-01 14:15 | 53.68758 | -145.82419 | 38966 ft | 575 kts | 101° |
| 2026-05-01 14:15 | 53.67534 | -145.69282 | 38984 ft | 576 kts | 101° |
| 2026-05-01 14:16 | 53.66313 | -145.56312 | 39006 ft | 576 kts | 101° |
| 2026-05-01 14:16 | 53.65071 | -145.43253 | 38996 ft | 575 kts | 101° |
| 2026-05-01 14:17 | 53.63813 | -145.30196 | 39012 ft | 574 kts | 101° |
| 2026-05-01 14:17 | 53.62530 | -145.17047 | 39012 ft | 575 kts | 101° |
| 2026-05-01 14:18 | 53.61228 | -145.03861 | 39026 ft | 576 kts | 101° |
| 2026-05-01 14:18 | 53.60136 | -144.92915 | 39026 ft | 576 kts | 101° |
| 2026-05-01 14:19 | 53.58582 | -144.77512 | 39042 ft | 576 kts | 102° |
| 2026-05-01 14:19 | 53.57243 | -144.64420 | 39047 ft | 576 kts | 101° |
| 2026-05-01 14:20 | 53.55181 | -144.44534 | 39070 ft | 577 kts | 101° |
| 2026-05-01 14:21 | 53.53788 | -144.31265 | 39070 ft | 577 kts | 101° |
| 2026-05-01 14:21 | 53.52390 | -144.18110 | 39086 ft | 576 kts | 102° |
| 2026-05-01 14:22 | 53.50253 | -143.98287 | 39100 ft | 576 kts | 101° |
| 2026-05-01 14:22 | 53.48813 | -143.85099 | 39099 ft | 576 kts | 101° |
| 2026-05-01 14:23 | 53.47362 | -143.71950 | 39110 ft | 576 kts | 102° |
| 2026-05-01 14:23 | 53.45895 | -143.58802 | 39110 ft | 576 kts | 102° |
| 2026-05-01 14:24 | 53.44409 | -143.45634 | 39127 ft | 576 kts | 101° |
| 2026-05-01 14:24 | 53.42920 | -143.32562 | 39138 ft | 576 kts | 101° |
| 2026-05-01 14:25 | 53.41406 | -143.19399 | 39143 ft | 576 kts | 101° |
| 2026-05-01 14:25 | 53.39878 | -143.06264 | 39154 ft | 576 kts | 102° |
| 2026-05-01 14:26 | 53.37553 | -142.86513 | 39168 ft | 577 kts | 101° |
| 2026-05-01 14:27 | 53.35997 | -142.73473 | 39174 ft | 577 kts | 101° |
| 2026-05-01 14:27 | 53.34417 | -142.60354 | 39186 ft | 577 kts | 101° |
| 2026-05-01 14:28 | 53.32028 | -142.40747 | 39195 ft | 577 kts | 101° |
| 2026-05-01 14:28 | 53.30410 | -142.27639 | 39196 ft | 576 kts | 101° |
| 2026-05-01 14:29 | 53.28781 | -142.14568 | 39214 ft | 576 kts | 101° |
| 2026-05-01 14:30 | 53.25486 | -141.88513 | 39223 ft | 575 kts | 101° |
| 2026-05-01 14:31 | 53.22984 | -141.69034 | 39244 ft | 573 kts | 101° |
| 2026-05-01 14:31 | 53.21316 | -141.56190 | 39246 ft | 569 kts | 101° |
| 2026-05-01 14:32 | 53.19640 | -141.43382 | 39246 ft | 569 kts | 101° |
| 2026-05-01 14:32 | 53.17951 | -141.30620 | 39254 ft | 566 kts | 101° |
| 2026-05-01 14:33 | 53.16252 | -141.17890 | 39258 ft | 565 kts | 101° |
| 2026-05-01 14:33 | 53.14538 | -141.05150 | 39260 ft | 565 kts | 101° |
| 2026-05-01 14:34 | 53.12802 | -140.92358 | 39270 ft | 565 kts | 101° |
| 2026-05-01 14:34 | 53.11084 | -140.79817 | 39271 ft | 565 kts | 101° |
| 2026-05-01 14:35 | 53.09330 | -140.67118 | 39281 ft | 565 kts | 101° |
| 2026-05-01 14:35 | 53.07558 | -140.54399 | 39287 ft | 565 kts | 102° |
| 2026-05-01 14:36 | 53.05795 | -140.41852 | 39289 ft | 563 kts | 102° |
| 2026-05-01 14:36 | 53.04031 | -140.29411 | 39294 ft | 558 kts | 101° |
| 2026-05-01 14:37 | 53.02272 | -140.17093 | 39297 ft | 554 kts | 102° |
| 2026-05-01 14:37 | 53.00495 | -140.04731 | 39303 ft | 554 kts | 102° |
| 2026-05-01 14:38 | 52.99370 | -139.92207 | 39303 ft | 550 kts | 93° |
| 2026-05-01 14:38 | 52.98611 | -139.79599 | 39302 ft | 549 kts | 92° |
| 2026-05-01 14:39 | 52.97902 | -139.67101 | 39311 ft | 546 kts | 92° |
| 2026-05-01 14:39 | 52.97299 | -139.56717 | 39312 ft | 546 kts | 92° |
| 2026-05-01 14:40 | 52.96551 | -139.44220 | 39338 ft | 546 kts | 93° |
| 2026-05-01 14:40 | 52.95783 | -139.31730 | 39316 ft | 543 kts | 94° |
| 2026-05-01 14:41 | 52.95004 | -139.19323 | 39331 ft | 543 kts | 94° |
| 2026-05-01 14:41 | 52.94222 | -139.07065 | 39325 ft | 539 kts | 94° |
| 2026-05-01 14:42 | 52.93424 | -138.94722 | 39327 ft | 538 kts | 94° |
| 2026-05-01 14:42 | 52.92619 | -138.82456 | 39328 ft | 538 kts | 94° |
| 2026-05-01 14:43 | 52.91799 | -138.70171 | 39328 ft | 538 kts | 94° |
| 2026-05-01 14:43 | 52.90972 | -138.57985 | 39332 ft | 538 kts | 94° |
| 2026-05-01 14:44 | 52.90126 | -138.45731 | 39332 ft | 533 kts | 95° |
| 2026-05-01 14:44 | 52.88847 | -138.27516 | 39330 ft | 530 kts | 95° |
| 2026-05-01 14:45 | 52.87549 | -138.09409 | 39333 ft | 530 kts | 95° |
| 2026-05-01 14:46 | 52.86664 | -137.97300 | 39327 ft | 530 kts | 95° |
| 2026-05-01 14:46 | 52.85317 | -137.79203 | 39330 ft | 528 kts | 95° |
| 2026-05-01 14:47 | 52.84410 | -137.67223 | 39330 ft | 528 kts | 96° |
| 2026-05-01 14:48 | 52.83023 | -137.49197 | 39325 ft | 528 kts | 96° |
| 2026-05-01 14:48 | 52.81615 | -137.31282 | 39328 ft | 526 kts | 96° |
| 2026-05-01 14:49 | 52.79698 | -137.07433 | 39323 ft | 526 kts | 96° |
| 2026-05-01 14:50 | 52.77735 | -136.83614 | 39321 ft | 526 kts | 97° |
| 2026-05-01 14:51 | 52.76228 | -136.65739 | 39322 ft | 522 kts | 97° |
| 2026-05-01 14:52 | 52.74746 | -136.48475 | 39310 ft | 521 kts | 97° |
| 2026-05-01 14:53 | 52.73204 | -136.30809 | 39308 ft | 521 kts | 97° |
| 2026-05-01 14:53 | 52.72174 | -136.19187 | 39299 ft | 521 kts | 98° |
| 2026-05-01 14:54 | 52.71126 | -136.07504 | 39304 ft | 519 kts | 98° |
| 2026-05-01 14:54 | 52.70068 | -135.95832 | 39303 ft | 519 kts | 98° |
| 2026-05-01 14:55 | 52.68991 | -135.84086 | 39296 ft | 519 kts | 98° |
| 2026-05-01 14:55 | 52.67915 | -135.72479 | 39294 ft | 518 kts | 98° |
| 2026-05-01 14:56 | 52.66823 | -135.60827 | 39293 ft | 518 kts | 98° |
| 2026-05-01 14:56 | 52.65718 | -135.49164 | 39292 ft | 518 kts | 98° |
| 2026-05-01 14:57 | 52.64600 | -135.37494 | 39292 ft | 517 kts | 98° |
| 2026-05-01 14:57 | 52.62914 | -135.20137 | 39289 ft | 517 kts | 99° |
| 2026-05-01 14:58 | 52.61762 | -135.08427 | 39283 ft | 518 kts | 99° |
| 2026-05-01 14:58 | 52.60604 | -134.96781 | 39283 ft | 518 kts | 99° |
| 2026-05-01 14:59 | 52.59446 | -134.85244 | 39284 ft | 518 kts | 99° |
| 2026-05-01 14:59 | 52.58264 | -134.73593 | 39281 ft | 518 kts | 99° |
| 2026-05-01 15:00 | 52.56474 | -134.56179 | 39266 ft | 518 kts | 99° |
| 2026-05-01 15:01 | 52.55274 | -134.44642 | 39278 ft | 518 kts | 99° |
| 2026-05-01 15:01 | 52.54053 | -134.33025 | 39277 ft | 517 kts | 100° |
| 2026-05-01 15:02 | 52.52825 | -134.21455 | 39274 ft | 517 kts | 100° |
| 2026-05-01 15:02 | 52.51578 | -134.09818 | 39272 ft | 517 kts | 100° |
| 2026-05-01 15:03 | 52.50332 | -133.98304 | 39269 ft | 516 kts | 100° |
| 2026-05-01 15:03 | 52.49078 | -133.86825 | 39266 ft | 516 kts | 100° |
| 2026-05-01 15:04 | 52.47831 | -133.75515 | 39272 ft | 514 kts | 101° |
| 2026-05-01 15:04 | 52.46549 | -133.63998 | 39275 ft | 514 kts | 101° |
| 2026-05-01 15:05 | 52.45255 | -133.52475 | 39273 ft | 514 kts | 101° |
| 2026-05-01 15:05 | 52.43967 | -133.41110 | 39273 ft | 514 kts | 101° |
| 2026-05-01 15:06 | 52.42653 | -133.29623 | 39265 ft | 514 kts | 101° |
| 2026-05-01 15:06 | 52.41330 | -133.18155 | 39262 ft | 513 kts | 101° |
| 2026-05-01 15:07 | 52.40001 | -133.06745 | 39268 ft | 512 kts | 101° |
| 2026-05-01 15:07 | 52.38660 | -132.95335 | 39269 ft | 512 kts | 101° |
| 2026-05-01 15:08 | 52.37315 | -132.83978 | 39265 ft | 512 kts | 101° |
| 2026-05-01 15:08 | 52.35975 | -132.72769 | 39262 ft | 512 kts | 101° |
| 2026-05-01 15:09 | 52.34611 | -132.61459 | 39272 ft | 510 kts | 102° |
| 2026-05-01 15:09 | 52.33326 | -132.50894 | 39271 ft | 510 kts | 102° |
| 2026-05-01 15:10 | 52.32008 | -132.40130 | 39269 ft | 510 kts | 102° |
| 2026-05-01 15:10 | 52.30206 | -132.25557 | 39258 ft | 510 kts | 102° |
| 2026-05-01 15:11 | 52.28470 | -132.11670 | 39268 ft | 509 kts | 102° |
| 2026-05-01 15:12 | 52.27330 | -132.02622 | 39258 ft | 509 kts | 102° |
| 2026-05-01 15:12 | 52.25603 | -131.89040 | 39255 ft | 508 kts | 103° |
| 2026-05-01 15:14 | 52.22711 | -131.66577 | 39246 ft | 508 kts | 103° |
| 2026-05-01 15:14 | 52.20961 | -131.53150 | 39256 ft | 508 kts | 103° |
| 2026-05-01 15:15 | 52.18570 | -131.35009 | 39258 ft | 506 kts | 103° |
| 2026-05-01 15:16 | 52.16049 | -131.16140 | 39254 ft | 505 kts | 104° |
| 2026-05-01 15:18 | 52.12824 | -130.92341 | 39231 ft | 504 kts | 104° |
| 2026-05-01 15:19 | 52.10285 | -130.73875 | 39238 ft | 504 kts | 104° |
| 2026-05-01 15:19 | 52.08354 | -130.59988 | 39228 ft | 504 kts | 104° |
| 2026-05-01 15:20 | 52.06410 | -130.46125 | 39228 ft | 505 kts | 104° |
| 2026-05-01 15:21 | 52.05118 | -130.36985 | 39233 ft | 506 kts | 105° |
| 2026-05-01 15:21 | 52.03821 | -130.27869 | 39227 ft | 505 kts | 105° |
| 2026-05-01 15:22 | 52.01844 | -130.14070 | 39223 ft | 506 kts | 105° |
| 2026-05-01 15:22 | 52.00420 | -130.04276 | 39220 ft | 505 kts | 106° |
| 2026-05-01 15:23 | 51.98368 | -129.95406 | 39222 ft | 502 kts | 119° |
| 2026-05-01 15:23 | 51.95757 | -129.86898 | 39214 ft | 505 kts | 119° |
| 2026-05-01 15:24 | 51.93143 | -129.78442 | 39211 ft | 506 kts | 119° |
| 2026-05-01 15:24 | 51.90545 | -129.70061 | 39212 ft | 505 kts | 119° |
| 2026-05-01 15:25 | 51.87996 | -129.61864 | 39211 ft | 503 kts | 119° |
| 2026-05-01 15:25 | 51.85393 | -129.53524 | 39217 ft | 503 kts | 119° |
| 2026-05-01 15:26 | 51.82834 | -129.45350 | 39214 ft | 504 kts | 119° |
| 2026-05-01 15:26 | 51.80234 | -129.37078 | 39194 ft | 505 kts | 119° |
| 2026-05-01 15:27 | 51.77490 | -129.28379 | 39211 ft | 504 kts | 119° |
| 2026-05-01 15:28 | 51.73581 | -129.16037 | 39189 ft | 505 kts | 120° |
| 2026-05-01 15:28 | 51.70940 | -129.07732 | 39204 ft | 506 kts | 119° |
| 2026-05-01 15:29 | 51.67345 | -128.96472 | 39195 ft | 505 kts | 120° |
| 2026-05-01 15:30 | 51.61922 | -128.79588 | 39201 ft | 503 kts | 120° |
| 2026-05-01 15:31 | 51.53794 | -128.54494 | 39189 ft | 502 kts | 120° |
| 2026-05-01 15:32 | 51.48337 | -128.37786 | 39185 ft | 503 kts | 120° |
| 2026-05-01 15:34 | 51.39699 | -128.11568 | 39175 ft | 501 kts | 121° |